createdAt,value
2019-02-21T00:00:44.463Z,37.60
2019-02-21T00:04:48.326Z,34.80
2019-02-21T00:08:52.872Z,39.48
2019-02-21T00:12:56.333Z,35.80
2019-02-21T00:16:59.744Z,39.85
2019-02-21T00:21:03.297Z,37.93
2019-02-21T00:25:06.762Z,42.03
2019-02-21T00:29:10.416Z,47.33
2019-02-21T00:33:14.032Z,51.70
2019-02-21T00:37:17.519Z,42.23
2019-02-21T00:41:21.057Z,37.70
2019-02-21T00:45:26.416Z,38.78
2019-02-21T00:49:29.923Z,35.85
2019-02-21T00:53:34.485Z,37.63
2019-02-21T00:57:37.977Z,41.10
2019-02-21T01:01:41.701Z,43.48
2019-02-21T01:05:45.574Z,43.55
2019-02-21T01:09:49.218Z,38.65
2019-02-21T01:13:52.833Z,38.08
2019-02-21T01:17:56.407Z,43.63
2019-02-21T01:22:00.164Z,45.50
2019-02-21T01:26:03.775Z,44.53
2019-02-21T01:30:08.234Z,49.45
2019-02-21T01:34:11.819Z,41.18
2019-02-21T01:38:15.542Z,47.08
2019-02-21T01:42:19.150Z,42.13
2019-02-21T01:46:22.733Z,43.13
2019-02-21T01:50:26.241Z,45.88
2019-02-21T01:54:29.745Z,43.23
2019-02-21T01:58:33.300Z,45.17
2019-02-21T02:02:36.913Z,44.05
2019-02-21T02:06:41.574Z,49.42
2019-02-21T02:10:45.166Z,43.33
2019-02-21T02:14:48.950Z,47.53
2019-02-21T02:18:52.562Z,43.68
2019-02-21T02:22:56.111Z,43.98
2019-02-21T02:26:59.519Z,44.42
2019-02-21T02:31:03.152Z,44.50
2019-02-21T02:35:06.950Z,45.30
2019-02-21T02:39:10.475Z,41.10
2019-02-21T02:43:14.183Z,45.12
2019-02-21T02:47:18.859Z,43.70
2019-02-21T02:51:22.534Z,49.25
2019-02-21T02:55:26.002Z,46.70
2019-02-21T02:59:40.399Z,51.75
2019-02-21T03:03:34.706Z,50.58
2019-02-21T03:07:38.220Z,42.17
2019-02-21T03:11:41.727Z,53.08
2019-02-21T03:15:45.202Z,48.90
2019-02-21T03:19:48.975Z,44.85
2019-02-21T03:23:52.568Z,43.20
2019-02-21T03:27:57.287Z,51.02
2019-02-21T03:32:00.935Z,49.10
2019-02-21T03:36:04.439Z,54.45
2019-02-21T03:40:09.622Z,50.17
2019-02-21T03:44:13.096Z,50.55
2019-02-21T03:48:16.568Z,51.00
2019-02-21T03:52:20.010Z,45.70
2019-02-21T03:56:23.527Z,46.34
2019-02-21T04:00:28.899Z,48.92
2019-02-21T04:04:32.036Z,46.60
2019-02-21T04:08:35.559Z,46.42
2019-02-21T04:12:39.175Z,46.48
2019-02-21T04:16:42.829Z,49.67
2019-02-21T04:20:46.482Z,43.85
2019-02-21T04:24:50.012Z,53.30
2019-02-21T04:28:53.668Z,48.80
2019-02-21T04:32:57.073Z,48.55
2019-02-21T04:37:01.012Z,46.30
2019-02-21T04:41:04.573Z,46.03
2019-02-21T04:45:08.126Z,50.13
2019-02-21T04:49:13.354Z,46.47
2019-02-21T04:53:16.889Z,44.33
2019-02-21T04:57:20.403Z,48.42
2019-02-21T05:01:23.970Z,49.63
2019-02-21T05:05:27.492Z,47.13
2019-02-21T05:09:32.863Z,42.13
2019-02-21T05:13:37.792Z,43.35
2019-02-21T05:17:41.431Z,46.60
2019-02-21T05:21:44.812Z,46.58
2019-02-21T05:25:50.119Z,47.05
2019-02-21T05:29:53.504Z,43.75
2019-02-21T05:34:07.562Z,45.80
2019-02-21T05:38:26.064Z,50.83
2019-02-21T05:42:42.854Z,55.10
2019-02-21T05:47:04.549Z,47.50
2019-02-21T05:51:12.564Z,51.13
2019-02-21T05:55:17.857Z,47.50
2019-02-21T05:59:25.873Z,50.92
2019-02-21T06:03:31.101Z,49.30
2019-02-21T06:07:51.332Z,52.55
2019-02-21T06:11:56.582Z,48.17
2019-02-21T06:16:02.797Z,50.48
2019-02-21T06:20:08.480Z,52.98
2019-02-21T06:24:13.873Z,51.48
2019-02-21T06:28:21.850Z,51.98
2019-02-21T06:32:25.353Z,54.77
2019-02-21T06:36:28.915Z,54.55
2019-02-21T06:40:32.384Z,59.08
2019-02-21T06:44:37.876Z,54.63
2019-02-21T06:48:41.085Z,60.58
2019-02-21T06:52:44.495Z,53.38
2019-02-21T06:56:47.964Z,56.23
2019-02-21T07:00:51.682Z,51.05
2019-02-21T07:04:56.671Z,54.88
2019-02-21T07:09:00.358Z,57.20
2019-02-21T07:13:03.894Z,56.73
2019-02-21T07:17:08.522Z,55.60
2019-02-21T07:21:13.281Z,56.27
2019-02-21T07:25:21.549Z,60.35
2019-02-21T07:29:25.106Z,57.83
2019-02-21T07:33:29.088Z,51.33
2019-02-21T07:37:32.643Z,57.13
2019-02-21T07:41:36.154Z,51.68
2019-02-21T07:45:40.675Z,48.33
2019-02-21T07:49:44.207Z,47.88
2019-02-21T07:53:47.764Z,45.92
2019-02-21T07:57:51.274Z,50.00
2019-02-21T08:01:55.155Z,50.25
2019-02-21T08:05:58.970Z,54.53
2019-02-21T08:10:02.682Z,48.15
2019-02-21T08:14:06.193Z,47.93
2019-02-21T08:18:09.806Z,52.40
2019-02-21T08:22:13.318Z,47.30
2019-02-21T08:26:19.994Z,51.77
2019-02-21T08:30:22.187Z,53.75
2019-02-21T08:34:27.437Z,45.75
2019-02-21T08:38:30.841Z,45.70
2019-02-21T08:42:34.359Z,45.08
2019-02-21T08:46:37.774Z,42.30
2019-02-21T08:50:41.378Z,43.60
2019-02-21T08:54:44.759Z,44.08
2019-02-21T08:58:49.136Z,39.58
2019-02-21T09:02:53.152Z,39.15
2019-02-21T09:06:57.415Z,31.97
2019-02-21T09:11:03.845Z,34.35
2019-02-21T09:15:09.225Z,34.45
2019-02-21T09:19:12.719Z,28.73
2019-02-21T09:23:16.193Z,33.02
2019-02-21T09:27:20.192Z,31.75
2019-02-21T09:31:23.625Z,34.63
2019-02-21T09:35:27.172Z,34.95
2019-02-21T09:39:30.993Z,36.40
2019-02-21T09:43:34.388Z,41.98
2019-02-21T09:47:38.222Z,30.70
2019-02-21T09:51:42.045Z,36.65
2019-02-21T09:55:45.717Z,35.70
2019-02-21T09:59:50.473Z,33.80
2019-02-21T10:03:54.008Z,37.63
2019-02-21T10:07:57.521Z,34.10
2019-02-21T10:12:00.945Z,29.30
2019-02-21T10:16:04.924Z,31.00
2019-02-21T10:20:11.499Z,29.20
2019-02-21T10:24:16.183Z,30.92
2019-02-21T10:28:19.686Z,29.92
2019-02-21T10:32:23.195Z,25.60
2019-02-21T10:36:26.668Z,25.55
2019-02-21T10:40:30.109Z,26.60
2019-02-21T10:44:33.628Z,29.05
2019-02-21T10:48:37.102Z,20.77
2019-02-21T10:52:41.638Z,23.95
2019-02-21T10:56:45.287Z,25.95
2019-02-21T11:00:48.769Z,21.70
2019-02-21T11:04:55.092Z,25.85
2019-02-21T11:08:57.462Z,22.60
2019-02-21T11:13:00.896Z,28.27
2019-02-21T11:17:04.584Z,26.37
2019-02-21T11:21:08.101Z,22.17
2019-02-21T11:25:12.183Z,23.83
2019-02-21T11:29:15.693Z,21.97
2019-02-21T11:33:19.208Z,25.48
2019-02-21T11:37:22.755Z,23.40
2019-02-21T11:41:26.227Z,21.87
2019-02-21T11:45:29.676Z,24.77
2019-02-21T11:49:33.188Z,23.20
2019-02-21T11:53:38.168Z,26.55
2019-02-21T11:57:41.849Z,24.87
2019-02-21T12:01:45.361Z,25.40
2019-02-21T12:05:48.835Z,25.90
2019-02-21T12:09:52.384Z,25.37
2019-02-21T12:13:55.962Z,24.02
2019-02-21T12:17:59.469Z,23.95
2019-02-21T12:22:03.128Z,21.12
2019-02-21T12:26:06.637Z,19.60
2019-02-21T12:30:12.579Z,26.37
2019-02-21T12:34:16.113Z,21.57
2019-02-21T12:38:19.584Z,25.57
2019-02-21T12:42:23.238Z,23.35
2019-02-21T12:46:28.358Z,26.75
2019-02-21T12:50:31.967Z,26.90
2019-02-21T12:54:38.154Z,24.12
2019-02-21T12:58:41.791Z,28.85
2019-02-21T13:02:45.331Z,29.87
2019-02-21T13:06:48.792Z,26.57
2019-02-21T13:10:52.329Z,27.37
2019-02-21T13:14:55.801Z,28.02
2019-02-21T13:18:59.307Z,31.37
2019-02-21T13:23:02.821Z,29.10
2019-02-21T13:27:06.348Z,26.90
2019-02-21T13:31:09.935Z,31.27
2019-02-21T13:35:14.638Z,32.48
2019-02-21T13:39:18.094Z,34.25
2019-02-21T13:43:21.656Z,31.42
2019-02-21T13:47:25.160Z,31.68
2019-02-21T13:51:28.639Z,31.60
2019-02-21T13:55:32.192Z,33.45
2019-02-21T13:59:36.717Z,27.90
2019-02-21T14:03:41.264Z,32.63
2019-02-21T14:07:44.763Z,34.80
2019-02-21T14:11:48.339Z,33.45
2019-02-21T14:15:51.891Z,30.48
2019-02-21T14:19:55.401Z,32.90
2019-02-21T14:23:58.813Z,34.80
2019-02-21T14:28:03.989Z,36.10
2019-02-21T14:32:07.534Z,38.48
2019-02-21T14:36:16.012Z,34.43
2019-02-21T14:40:17.231Z,37.03
2019-02-21T14:44:20.732Z,37.20
2019-02-21T14:48:26.714Z,41.68
2019-02-21T14:52:31.114Z,36.88
2019-02-21T14:56:34.619Z,46.77
2019-02-21T15:00:38.160Z,44.58
2019-02-21T15:04:41.706Z,44.58
2019-02-21T15:08:45.178Z,46.13
2019-02-21T15:12:48.622Z,49.05
2019-02-21T15:16:52.136Z,43.23
2019-02-21T15:20:55.521Z,44.13
2019-02-21T15:24:59.057Z,45.33
2019-02-21T15:29:02.494Z,46.42
2019-02-21T15:33:06.050Z,53.33
2019-02-21T15:37:09.594Z,47.48
2019-02-21T15:41:13.044Z,47.00
2019-02-21T15:45:23.581Z,49.90
2019-02-21T15:49:24.705Z,49.80
2019-02-21T15:53:28.449Z,53.40
2019-02-21T15:57:31.869Z,58.58
2019-02-21T16:01:46.996Z,55.30
2019-02-21T16:05:40.521Z,51.37
2019-02-21T16:09:43.992Z,53.70
2019-02-21T16:13:47.795Z,51.87
2019-02-21T16:17:51.634Z,56.10
2019-02-21T16:21:55.181Z,55.10
2019-02-21T16:26:00.405Z,54.80
2019-02-21T16:30:04.113Z,58.78
2019-02-21T16:34:09.283Z,52.35
2019-02-21T16:38:12.772Z,57.95
2019-02-21T16:42:17.386Z,59.77
2019-02-21T16:46:20.821Z,54.20
2019-02-21T16:50:29.609Z,55.90
2019-02-21T16:54:29.622Z,53.23
2019-02-21T16:58:34.869Z,59.50
2019-02-21T17:02:38.586Z,61.40
2019-02-21T17:06:42.102Z,60.63
2019-02-21T17:10:45.613Z,59.53
2019-02-21T17:14:50.113Z,73.62
2019-02-21T17:18:55.922Z,68.85
2019-02-21T17:22:58.837Z,70.03
2019-02-21T17:27:02.264Z,64.30
2019-02-21T17:31:05.730Z,64.12
2019-02-21T17:35:09.198Z,65.97
2019-02-21T17:39:12.854Z,62.50
2019-02-21T17:43:16.330Z,67.55
2019-02-21T17:47:19.878Z,68.25
2019-02-21T17:51:24.823Z,65.12
2019-02-21T17:55:28.236Z,67.70
2019-02-21T17:59:31.707Z,71.72
2019-02-21T18:03:35.317Z,68.47
2019-02-21T18:07:38.827Z,63.33
2019-02-21T18:11:42.342Z,66.42
2019-02-21T18:15:45.896Z,66.77
2019-02-21T18:19:49.370Z,61.60
2019-02-21T18:23:52.812Z,63.70
2019-02-21T18:27:56.288Z,66.47
2019-02-21T18:32:00.789Z,64.50
2019-02-21T18:36:04.370Z,62.53
2019-02-21T18:40:20.852Z,67.70
2019-02-21T18:44:24.707Z,58.58
2019-02-21T18:48:28.183Z,62.38
2019-02-21T18:52:31.691Z,60.58
2019-02-21T18:56:35.242Z,55.73
2019-02-21T19:00:38.755Z,54.27
2019-02-21T19:04:42.263Z,61.15
2019-02-21T19:08:45.733Z,61.48
2019-02-21T19:12:50.311Z,61.30
2019-02-21T19:16:53.963Z,71.60
2019-02-21T19:20:57.537Z,63.38
2019-02-21T19:25:01.011Z,61.40
2019-02-21T19:29:04.559Z,63.63
2019-02-21T19:33:08.071Z,68.05
2019-02-21T19:37:11.561Z,60.12
2019-02-21T19:41:15.057Z,63.65
2019-02-21T19:45:18.675Z,58.20
2019-02-21T19:49:22.319Z,62.98
2019-02-21T19:53:26.040Z,68.00
2019-02-21T19:57:29.654Z,63.52
2019-02-21T20:01:33.163Z,64.07
2019-02-21T20:05:36.777Z,63.55
2019-02-21T20:09:40.262Z,62.23
2019-02-21T20:13:43.804Z,60.23
2019-02-21T20:17:47.312Z,61.20
2019-02-21T20:21:50.823Z,63.37
2019-02-21T20:25:54.334Z,59.63
2019-02-21T20:29:57.845Z,55.48
2019-02-21T20:34:01.461Z,49.63
2019-02-21T20:38:04.980Z,50.90
2019-02-21T20:42:08.482Z,45.43
2019-02-21T20:46:13.889Z,47.38
2019-02-21T20:50:17.145Z,44.98
2019-02-21T20:54:20.761Z,39.38
2019-02-21T20:58:24.489Z,40.23
2019-02-21T21:02:28.395Z,36.30
2019-02-21T21:06:32.918Z,32.15
2019-02-21T21:10:36.441Z,32.03
2019-02-21T21:14:40.054Z,35.08
2019-02-21T21:18:43.595Z,30.05
2019-02-21T21:22:47.146Z,30.15
2019-02-21T21:26:50.752Z,27.85
2019-02-21T21:30:56.130Z,27.48
2019-02-21T21:34:59.557Z,27.02
2019-02-21T21:39:03.078Z,29.23
2019-02-21T21:43:06.559Z,26.20
2019-02-21T21:47:10.195Z,52.73
2019-02-21T21:51:13.707Z,28.05
2019-02-21T21:55:17.318Z,30.12
2019-02-21T21:59:20.835Z,30.45
2019-02-21T22:03:24.753Z,30.82
2019-02-21T22:07:28.267Z,28.02
2019-02-21T22:11:31.647Z,29.95
2019-02-21T22:15:35.185Z,31.55
2019-02-21T22:19:38.658Z,31.00
2019-02-21T22:23:42.262Z,31.62
2019-02-21T22:27:46.755Z,30.55
2019-02-21T22:31:50.211Z,33.02
2019-02-21T22:35:53.663Z,29.77
2019-02-21T22:39:57.133Z,32.55
2019-02-21T22:44:00.749Z,32.30
2019-02-21T22:48:04.303Z,38.35
2019-02-21T22:52:07.676Z,37.83
2019-02-21T22:56:11.220Z,41.25
2019-02-21T23:00:31.526Z,42.65
2019-02-21T23:04:38.419Z,44.53
2019-02-21T23:08:48.071Z,45.88
2019-02-21T23:12:51.507Z,50.30
2019-02-21T23:16:54.992Z,55.73
2019-02-21T23:20:58.377Z,50.95
2019-02-21T23:25:01.914Z,55.05
2019-02-21T23:29:05.381Z,56.88
2019-02-21T23:33:08.938Z,54.90
2019-02-21T23:37:12.548Z,55.98
2019-02-21T23:41:17.268Z,55.40
2019-02-21T23:45:20.663Z,52.10
2019-02-21T23:49:25.169Z,50.63
2019-02-21T23:53:28.745Z,54.42
2019-02-21T23:57:32.114Z,55.50
